Latest Coastal Weather Observations for Wyndham Airport

IDD60701

Issued at 1:31 am CST Thursday 30 July 2015 (issued every 10 minutes, with the page automatically refreshed every 10 minutes)

About coastal observations | Map of coastal stations | Coastal observations for NT | Marine services | Other Formats
Station Details ID: 001006 Name: WYNDHAM AERO Lat: -15.51 Lon: 128.15 Height: 3.8 m
Data from the previous 72 hours. | See also: Recent months for locations in Northern Territory
Date/Time
CST
Temp

°C
Wind Pressure Rain
since 9am
mm
Weather Cloud Vis
km
Sea
Height
m
Swell
Dir
 
Speed
knots
Gust
knots
hPa Trend Height
m
Period
s
Dir
30/01:30am 17.9 E 4 5 1017.6 - 0.0 - - - - - - -
30/01:00am 18.6 ENE 4 5 1017.7 - 0.0 - - - - - - -
30/12:30am 18.8 ENE 5 6 1017.7 - 0.0 - - - - - - -
30/12:00am 20.9 E 6 7 1017.6 - 0.0 - - - - - - -
 
Date/Time
CST
Temp

°C
Wind Pressure Rain
since 9am
mm
Weather Cloud Vis
km
Sea
Height
m
Swell
Dir
 
Speed
knots
Gust
knots
hPa Trend Height
m
Period
s
Dir
29/11:30pm 21.8 E 7 8 1017.7 - 0.0 - - - - - - -
29/11:00pm 20.3 E 5 6 1017.7 - 0.0 - - - - - - -
29/10:30pm 22.2 E 5 5 1017.7 - 0.0 - - - - - - -
29/10:00pm 23.5 E 6 6 1017.7 - 0.0 - - - - - - -
29/09:30pm 23.9 E 6 6 1017.7 - 0.0 - - - - - - -
29/09:00pm 24.2 E 6 6 1017.5 - 0.0 - - - - - - -
29/08:30pm 25.3 E 5 5 1017.2 - 0.0 - - - - - - -
29/08:00pm 25.4 E 5 6 1016.8 - 0.0 - - - - - - -
29/07:30pm 25.9 E 6 7 1016.6 - 0.0 - - - - - - -
29/07:00pm 27.9 SE 8 10 1016.3 - 0.0 - - - - - - -
29/06:30pm 29.4 SE 9 11 1016.0 - 0.0 - - - - - - -
29/06:00pm 30.6 SSE 10 13 1015.9 - 0.0 - - - - - - -
29/05:30pm 31.4 SE 8 13 1015.8 - 0.0 - - - - - - -
29/05:00pm 31.6 E 9 14 1015.6 - 0.0 - - - - - - -
29/04:30pm 31.4 E 9 15 1015.7 - 0.0 - - - - - - -
29/04:00pm 32.1 ENE 8 13 1015.7 - 0.0 - - - - - - -
29/03:30pm 31.2 ESE 9 15 1016.0 - 0.0 - - - - - - -
29/03:00pm 31.1 E 9 14 1016.5 - 0.0 - - - - - - -
29/02:30pm 31.2 E 10 14 1016.9 - 0.0 - - - - - - -
29/02:00pm 31.3 ENE 11 16 1017.3 - 0.0 - - - - - - -
29/01:30pm 29.8 SE 10 15 1018.0 - 0.0 - - - - - - -
29/01:00pm 29.7 ESE 11 17 1018.6 - 0.0 - - - - - - -
29/12:30pm 29.1 SE 11 15 1019.2 - 0.0 - - - - - - -
29/12:00pm 28.3 SE 11 15 1019.8 - 0.0 - - - - - - -
29/11:30am 27.9 SE 13 19 1020.3 - 0.0 - - - - - - -
29/11:00am 26.9 SE 14 19 1020.9 - 0.0 - - - - - - -
29/10:30am 26.2 SE 15 19 1021.2 - 0.0 - - - - - - -
29/10:00am 26.1 SE 14 19 1021.3 - 0.0 - - - - - - -
29/09:30am 24.6 SE 14 19 1021.2 - 0.0 - - - - - - -
29/09:00am 24.1 SE 12 16 1020.8 - 0.0 - - - - - - -
29/08:30am 22.8 SE 6 8 1020.4 - 0.0 - - - - - - -
29/08:00am 20.7 SE 5 8 1020.0 - 0.0 - - - - - - -
29/07:30am 17.7 E 3 4 1019.8 - 0.0 - - - - - - -
29/07:00am 17.6 ESE 5 6 1019.4 - 0.0 - - - - - - -
29/06:30am 19.4 SE 6 7 1019.1 - 0.0 - - - - - - -
29/06:00am 18.6 SE 4 5 1018.8 - 0.0 - - - - - - -
29/05:30am 19.5 SE 3 4 1018.6 - 0.0 - - - - - - -
29/05:00am 19.1 E 4 5 1018.4 - 0.0 - - - - - - -
29/04:30am 20.2 ESE 4 5 1018.4 - 0.0 - - - - - - -
29/04:00am 20.4 ESE 5 6 1018.4 - 0.0 - - - - - - -
29/03:30am 19.4 SE 4 5 1018.6 - 0.0 - - - - - - -
29/03:00am 19.4 SSE 4 5 1018.9 - 0.0 - - - - - - -
29/02:30am 20.6 SSE 5 6 1019.1 - 0.0 - - - - - - -
29/02:00am 19.6 SSE 2 5 1019.2 - 0.0 - - - - - - -
29/01:30am 19.5 E 4 6 1019.2 - 0.0 - - - - - - -
29/01:00am 21.1 SE 9 10 1019.2 - 0.0 - - - - - - -
29/12:30am 20.3 SE 7 8 1019.2 - 0.0 - - - - - - -
29/12:00am 19.9 SE 6 6 1019.2 - 0.0 - - - - - - -
 
Date/Time
CST
Temp

°C
Wind Pressure Rain
since 9am
mm
Weather Cloud Vis
km
Sea
Height
m
Swell
Dir
 
Speed
knots
Gust
knots
hPa Trend Height
m
Period
s
Dir
28/11:30pm 20.1 ESE 7 7 1019.3 - 0.0 - - - - - - -
28/11:00pm 22.3 ESE 5 6 1019.4 - 0.0 - - - - - - -
28/10:30pm 22.1 SE 6 7 1019.4 - 0.0 - - - - - - -
28/10:00pm 21.9 SE 7 8 1019.3 - 0.0 - - - - - - -
28/09:30pm 24.1 E 6 7 1019.1 - 0.0 - - - - - - -
28/09:00pm 24.5 E 6 6 1018.9 - 0.0 - - - - - - -
28/08:30pm 23.3 ESE 7 8 1018.5 - 0.0 - - - - - - -
28/08:00pm 25.7 SE 8 10 1018.1 - 0.0 - - - - - - -
28/07:30pm 27.7 SSE 10 14 1017.6 - 0.0 - - - - - - -
28/07:00pm 27.9 SE 9 14 1017.3 - 0.0 - - - - - - -
28/06:30pm 29.0 SE 11 15 1016.9 - 0.0 - - - - - - -
28/06:00pm 29.9 SE 13 17 1016.7 - 0.0 - - - - - - -
28/05:30pm 30.7 SSE 13 17 1016.5 - 0.0 - - - - - - -
28/05:00pm 30.9 SE 12 19 1016.4 - 0.0 - - - - - - -
28/04:30pm 30.9 SE 13 19 1016.4 - 0.0 - - - - - - -
28/04:00pm 31.7 SE 13 19 1016.3 - 0.0 - - - - - - -
28/03:30pm 31.6 SE 12 19 1016.6 - 0.0 - - - - - - -
28/03:00pm 31.6 ESE 11 17 1016.9 - 0.0 - - - - - - -
28/02:30pm 31.4 SE 12 18 1017.5 - 0.0 - - - - - - -
28/02:00pm 30.4 SE 11 16 1018.0 - 0.0 - - - - - - -
28/01:30pm 30.0 SE 12 18 1018.6 - 0.0 - - - - - - -
28/01:00pm 30.1 ESE 12 17 1019.3 - 0.0 - - - - - - -
28/12:30pm 29.5 ESE 15 21 1019.9 - 0.0 - - - - - - -
28/12:00pm 28.5 E 15 21 1020.4 - 0.0 - - - - - - -
28/11:30am 27.6 ESE 14 19 1020.8 - 0.0 - - - - - - -
28/11:00am 27.0 ESE 16 22 1021.2 - 0.0 - - - - - - -
28/10:30am 26.8 ESE 17 22 1021.5 - 0.0 - - - - - - -
28/10:00am 25.8 ESE 17 22 1021.4 - 0.0 - - - - - - -
28/09:30am 25.3 SE 19 23 1021.4 - 0.0 - - - - - - -
28/09:00am 24.8 SE 18 22 1021.1 - 0.0 - - - - - - -
28/08:30am 24.2 SE 11 16 1020.9 - 0.0 - - - - - - -
28/08:00am 23.7 ESE 13 17 1020.6 - 0.0 - - - - - - -
28/07:30am 23.1 ESE 11 15 1019.9 - 0.0 - - - - - - -
28/07:00am 23.4 ESE 14 17 1019.3 - 0.0 - - - - - - -
28/06:30am 23.8 ESE 15 19 1018.8 - 0.0 - - - - - - -
28/06:00am 23.7 E 13 16 1018.7 - 0.0 - - - - - - -
28/05:30am 23.9 E 12 14 1018.5 - 0.0 - - - - - - -
28/05:00am 24.5 E 13 18 1018.3 - 0.0 - - - - - - -
28/04:30am 24.8 E 13 16 1018.3 - 0.0 - - - - - - -
28/04:00am 24.6 E 11 14 1018.3 - 0.0 - - - - - - -
28/03:30am 24.5 ESE 11 14 1018.3 - 0.0 - - - - - - -
28/03:00am 24.9 ESE 12 15 1018.5 - 0.0 - - - - - - -
28/02:30am 25.7 ESE 14 19 1018.5 - 0.0 - - - - - - -
28/02:00am 25.7 ESE 13 16 1018.6 - 0.0 - - - - - - -
28/01:30am 26.3 ESE 13 17 1018.6 - 0.0 - - - - - - -
28/01:00am 26.4 ESE 12 15 1018.6 - 0.0 - - - - - - -
28/12:30am 27.1 ESE 10 14 1018.5 - 0.0 - - - - - - -
28/12:00am 26.8 ESE 11 13 1018.4 - 0.0 - - - - - - -
 
Date/Time
CST
Temp

°C
Wind Pressure Rain
since 9am
mm
Weather Cloud Vis
km
Sea
Height
m
Swell
Dir
 
Speed
knots
Gust
knots
hPa Trend Height
m
Period
s
Dir
27/11:30pm 26.1 ESE 9 11 1018.4 - 0.0 - - - - - - -
27/11:00pm 25.6 ESE 8 9 1018.3 - 0.0 - - - - - - -
27/10:30pm 25.5 ESE 6 8 1018.0 - 0.0 - - - - - - -
27/10:00pm 25.5 SE 6 8 1017.8 - 0.0 - - - - - - -
27/09:30pm 25.9 ESE 7 7 1017.7 - 0.0 - - - - - - -
27/09:00pm 26.0 SE 7 8 1017.3 - 0.0 - - - - - - -
27/08:30pm 26.6 SE 7 8 1017.0 - 0.0 - - - - - - -
27/08:00pm 28.7 SE 9 11 1016.6 - 0.0 - - - - - - -
27/07:30pm 31.0 ESE 10 13 1016.2 - 0.0 - - - - - - -
27/07:00pm 31.7 E 12 14 1015.8 - 0.0 - - - - - - -
27/06:30pm 32.5 E 13 17 1015.3 - 0.0 - - - - - - -
27/06:00pm 33.5 ESE 15 19 1014.9 - 0.0 - - - - - - -
27/05:30pm 34.3 ESE 13 16 1014.6 - 0.0 - - - - - - -
27/05:00pm 34.6 ESE 15 20 1014.5 - 0.0 - - - - - - -
27/04:30pm 35.2 ESE 11 16 1014.4 - 0.0 - - - - - - -
27/04:00pm 35.1 ESE 14 19 1014.5 - 0.0 - - - - - - -
27/03:30pm 35.8 ENE 11 18 1014.6 - 0.0 - - - - - - -
27/03:00pm 35.2 ESE 15 21 1014.9 - 0.0 - - - - - - -
27/02:30pm 35.3 ESE 13 19 1015.2 - 0.0 - - - - - - -
27/02:00pm 35.5 ESE 13 20 1015.4 - 0.0 - - - - - - -
27/01:30pm 35.6 E 11 22 1016.0 - 0.0 - - - - - - -
27/01:00pm 35.4 ESE 14 20 1016.6 - 0.0 - - - - - - -
27/12:30pm 34.2 ESE 15 21 1017.2 - 0.0 - - - - - - -
27/12:00pm 34.2 E 16 26 1017.6 - 0.0 - - - - - - -
27/11:56am 34.0 E 16 26 1017.6 - 0.0 - - - - - - -
27/11:30am 33.1 E 18 24 1018.2 - 0.0 - - - - - - -
27/11:00am 32.8 E 16 24 1018.2 - 0.0 - - - - - - -
27/10:30am 32.1 ESE 17 24 1018.6 - 0.0 - - - - - - -
27/10:00am 31.5 ESE 19 27 1018.5 - 0.0 - - - - - - -
27/09:30am 30.9 ESE 15 19 1018.4 - 0.0 - - - - - - -
27/09:28am 31.0 ESE 15 19 1018.4 - 0.0 - - - - - - -
27/09:00am 27.3 SSE 2 5 1018.3 - 0.0 - - - - - - -
27/08:30am 23.4 CALM 0 0 1018.0 - 0.0 - - - - - - -
27/08:00am 20.9 CALM 0 3 1017.7 - 0.0 - - - - - - -
27/07:30am 19.5 E 4 6 1017.3 - 0.0 - - - - - - -
27/07:00am 20.2 CALM 0 0 1017.0 - 0.0 - - - - - - -
27/06:30am 20.6 CALM 0 0 1016.7 - 0.0 - - - - - - -
27/06:00am 21.4 CALM 0 0 1016.6 - 0.0 - - - - - - -
27/05:30am 20.5 CALM 0 0 1016.4 - 0.0 - - - - - - -
27/05:00am 21.1 CALM 0 0 1016.3 - 0.0 - - - - - - -
27/04:30am 21.3 CALM 0 0 1016.3 - 0.0 - - - - - - -
27/04:00am 21.9 WNW 4 5 1016.4 - 0.0 - - - - - - -
27/03:30am 22.3 NW 6 7 1016.5 - 0.0 - - - - - - -

Other Formats:

Comma delimited format used in spreadsheet applications
http://www.bom.gov.au/fwo/IDD60701/IDD60701.95214.axf

JavaScript Object Notation format (JSON) in row-major order
http://www.bom.gov.au/fwo/IDD60701/IDD60701.95214.json